createdAt,value
2018-06-18T00:01:25.890Z,1.60
2018-06-18T00:04:04.794Z,1.70
2018-06-18T00:06:41.335Z,2.00
2018-06-18T00:09:17.734Z,1.73
2018-06-18T00:11:54.058Z,2.17
2018-06-18T00:14:30.447Z,2.50
2018-06-18T00:17:07.970Z,2.20
2018-06-18T00:19:44.227Z,2.30
2018-06-18T00:22:20.658Z,2.23
2018-06-18T00:24:57.036Z,2.77
2018-06-18T00:27:33.496Z,1.97
2018-06-18T00:30:09.847Z,2.63
2018-06-18T00:32:46.346Z,2.90
2018-06-18T00:35:22.947Z,2.97
2018-06-18T00:37:59.489Z,2.57
2018-06-18T00:40:35.820Z,2.10
2018-06-18T00:43:12.274Z,2.90
2018-06-18T00:45:48.767Z,2.20
2018-06-18T00:48:25.229Z,2.13
2018-06-18T00:51:01.666Z,2.13
2018-06-18T00:53:38.158Z,2.27
2018-06-18T00:56:15.974Z,2.40
2018-06-18T00:58:52.424Z,2.57
2018-06-18T01:01:28.877Z,2.30
2018-06-18T01:04:09.200Z,2.70
2018-06-18T01:06:45.406Z,2.40
2018-06-18T01:09:22.692Z,2.67
2018-06-18T01:11:59.160Z,2.63
2018-06-18T01:14:35.678Z,2.10
2018-06-18T01:17:12.205Z,2.10
2018-06-18T01:19:48.663Z,2.17
2018-06-18T01:22:25.138Z,3.13
2018-06-18T01:25:05.419Z,2.13
2018-06-18T01:27:41.831Z,1.77
2018-06-18T01:30:18.221Z,1.93
2018-06-18T01:32:54.722Z,1.80
2018-06-18T01:35:31.347Z,1.77
2018-06-18T01:38:07.591Z,2.17
2018-06-18T01:40:44.129Z,1.70
2018-06-18T01:43:20.555Z,2.00
2018-06-18T01:45:56.734Z,2.20
2018-06-18T01:48:33.119Z,2.20
2018-06-18T01:51:09.604Z,2.00
2018-06-18T01:53:45.896Z,2.30
2018-06-18T01:56:22.366Z,1.87
2018-06-18T01:58:58.894Z,2.20
2018-06-18T02:01:35.203Z,2.13
2018-06-18T02:04:11.671Z,2.50
2018-06-18T02:06:48.183Z,2.20
2018-06-18T02:09:25.581Z,2.40
2018-06-18T02:12:01.796Z,2.10
2018-06-18T02:14:38.275Z,2.30
2018-06-18T02:17:14.701Z,2.60
2018-06-18T02:19:51.447Z,2.07
2018-06-18T02:22:27.937Z,2.47
2018-06-18T02:25:04.436Z,2.20
2018-06-18T02:27:45.998Z,2.40
2018-06-18T02:30:27.588Z,2.93
2018-06-18T02:33:09.301Z,2.20
2018-06-18T02:35:51.099Z,2.13
2018-06-18T02:39:36.830Z,2.40
2018-06-18T02:42:13.344Z,2.47
2018-06-18T02:44:49.900Z,2.33
2018-06-18T02:47:26.200Z,2.50
2018-06-18T02:50:02.642Z,2.80
2018-06-18T02:52:38.920Z,2.70
2018-06-18T02:55:15.364Z,2.67
2018-06-18T02:57:51.843Z,3.00
2018-06-18T03:00:28.363Z,2.17
2018-06-18T03:03:04.685Z,2.57
2018-06-18T03:05:41.045Z,2.20
2018-06-18T03:08:17.504Z,2.30
2018-06-18T03:10:53.951Z,2.20
2018-06-18T03:13:30.431Z,2.30
2018-06-18T03:16:06.828Z,2.53
2018-06-18T03:18:48.327Z,2.43
2018-06-18T03:21:29.897Z,2.53
2018-06-18T03:24:10.664Z,3.10
2018-06-18T03:26:52.300Z,2.40
2018-06-18T03:29:30.945Z,2.63
2018-06-18T03:32:14.944Z,2.50
2018-06-18T03:34:51.579Z,2.20
2018-06-18T03:37:28.023Z,2.30
2018-06-18T03:40:05.497Z,2.50
2018-06-18T03:42:42.818Z,2.33
2018-06-18T03:45:25.827Z,2.37
2018-06-18T03:48:08.188Z,2.20
2018-06-18T03:50:44.657Z,2.17
2018-06-18T03:53:21.078Z,2.30
2018-06-18T03:56:00.238Z,2.77
2018-06-18T03:58:36.564Z,2.20
2018-06-18T04:01:58.645Z,2.47
2018-06-18T04:04:58.988Z,2.40
2018-06-18T04:07:41.224Z,2.77
2018-06-18T04:10:22.794Z,2.10
2018-06-18T04:12:59.422Z,2.00
2018-06-18T04:15:35.965Z,2.70
2018-06-18T04:18:12.327Z,3.17
2018-06-18T04:20:50.666Z,2.00
2018-06-18T04:23:27.030Z,2.00
2018-06-18T04:26:03.498Z,2.70
2018-06-18T04:28:40.126Z,4.07
2018-06-18T04:31:16.727Z,2.10
2018-06-18T04:34:07.637Z,2.93
2018-06-18T04:36:45.027Z,2.77
2018-06-18T04:39:21.643Z,2.10
2018-06-18T04:42:03.283Z,2.37
2018-06-18T04:44:45.112Z,2.23
2018-06-18T04:47:27.012Z,2.00
2018-06-18T04:50:10.532Z,2.60
2018-06-18T04:52:47.317Z,2.57
2018-06-18T04:55:23.688Z,2.40
2018-06-18T04:58:00.194Z,3.27
2018-06-18T05:01:17.902Z,4.33
2018-06-18T05:03:54.736Z,3.07
2018-06-18T05:06:32.326Z,14.47
2018-06-18T05:09:20.998Z,4.77
2018-06-18T05:11:57.473Z,4.53
2018-06-18T05:14:33.706Z,2.50
2018-06-18T05:17:10.202Z,2.83
2018-06-18T05:19:46.677Z,2.40
2018-06-18T05:22:23.194Z,3.40
2018-06-18T05:24:59.875Z,3.07
2018-06-18T05:27:36.682Z,2.93
2018-06-18T05:30:20.487Z,2.50
2018-06-18T05:32:57.347Z,3.00
2018-06-18T05:35:33.766Z,2.53
2018-06-18T05:38:36.563Z,2.80
2018-06-18T05:41:12.934Z,2.40
2018-06-18T05:43:49.515Z,3.40
2018-06-18T05:46:25.959Z,2.70
2018-06-18T05:49:02.298Z,2.47
2018-06-18T05:51:38.879Z,2.40
2018-06-18T05:54:15.332Z,2.03
2018-06-18T05:56:52.889Z,1.90
2018-06-18T05:59:29.396Z,3.07
2018-06-18T06:02:06.019Z,4.93
2018-06-18T06:04:42.353Z,3.27
2018-06-18T06:07:19.337Z,2.50
2018-06-18T06:09:56.176Z,2.07
2018-06-18T06:12:32.577Z,11.80
2018-06-18T06:15:09.558Z,9.00
2018-06-18T06:17:45.918Z,2.37
2018-06-18T06:20:22.989Z,2.50
2018-06-18T06:22:59.459Z,2.13
2018-06-18T06:25:35.773Z,1.87
2018-06-18T06:28:12.306Z,1.93
2018-06-18T06:30:48.639Z,2.53
2018-06-18T06:33:26.671Z,1.87
2018-06-18T06:36:03.838Z,1.80
2018-06-18T06:38:40.254Z,1.67
2018-06-18T06:41:17.453Z,2.00
2018-06-18T06:43:54.062Z,1.33
2018-06-18T06:46:30.410Z,2.27
2018-06-18T06:49:06.911Z,1.60
2018-06-18T06:51:43.319Z,1.50
2018-06-18T06:54:19.701Z,1.80
2018-06-18T06:56:56.256Z,1.80
2018-06-18T06:59:32.755Z,2.43
2018-06-18T07:02:09.314Z,1.83
2018-06-18T07:04:45.735Z,2.43
2018-06-18T07:07:22.126Z,2.10
2018-06-18T07:09:58.615Z,2.53
2018-06-18T07:12:35.123Z,2.57
2018-06-18T07:15:11.612Z,2.20
2018-06-18T07:17:47.994Z,2.30
2018-06-18T07:20:24.822Z,1.70
2018-06-18T07:23:01.244Z,2.63
2018-06-18T07:25:37.739Z,2.17
2018-06-18T07:28:14.133Z,2.43
2018-06-18T07:30:50.642Z,2.30
2018-06-18T07:33:27.216Z,1.50
2018-06-18T07:36:03.745Z,2.53
2018-06-18T07:38:40.811Z,2.00
2018-06-18T07:41:17.306Z,1.90
2018-06-18T07:43:53.858Z,1.97
2018-06-18T07:46:29.900Z,2.00
2018-06-18T07:49:06.559Z,2.30
2018-06-18T07:51:42.937Z,1.60
2018-06-18T07:54:19.475Z,1.60
2018-06-18T07:56:56.019Z,1.80
2018-06-18T07:59:32.472Z,1.57
2018-06-18T08:02:08.981Z,1.67
2018-06-18T08:04:45.486Z,1.90
2018-06-18T08:07:21.991Z,1.50
2018-06-18T08:09:58.367Z,2.60
2018-06-18T08:12:34.821Z,1.83
2018-06-18T08:15:11.352Z,2.40
2018-06-18T08:17:47.889Z,1.70
2018-06-18T08:20:24.272Z,1.57
2018-06-18T08:23:00.798Z,1.40
2018-06-18T08:25:38.457Z,1.67
2018-06-18T08:28:14.868Z,2.30
2018-06-18T08:30:51.197Z,1.77
2018-06-18T08:33:27.562Z,2.13
2018-06-18T08:36:04.044Z,2.00
2018-06-18T08:38:40.455Z,1.83
2018-06-18T08:41:16.905Z,1.97
2018-06-18T08:43:53.303Z,2.27
2018-06-18T08:46:29.717Z,1.80
2018-06-18T08:49:07.582Z,2.07
2018-06-18T08:51:49.205Z,2.30
2018-06-18T08:54:30.901Z,2.10
2018-06-18T08:57:12.842Z,1.57
2018-06-18T08:59:54.384Z,2.20
2018-06-18T09:02:32.761Z,1.60
2018-06-18T09:05:12.191Z,1.90
2018-06-18T09:07:55.043Z,1.70
2018-06-18T09:10:31.661Z,1.83
2018-06-18T09:13:08.755Z,1.43
2018-06-18T09:15:45.501Z,1.70
2018-06-18T09:18:22.051Z,1.53
2018-06-18T09:20:59.197Z,1.57
2018-06-18T09:23:35.706Z,1.57
2018-06-18T09:26:12.118Z,3.50
2018-06-18T09:28:48.618Z,1.70
2018-06-18T09:31:25.004Z,1.60
2018-06-18T09:34:01.390Z,1.50
2018-06-18T09:36:37.890Z,1.37
2018-06-18T09:39:15.430Z,1.90
2018-06-18T09:41:51.958Z,2.07
2018-06-18T09:44:28.468Z,1.40
2018-06-18T09:47:04.826Z,1.93
2018-06-18T09:49:46.769Z,3.27
2018-06-18T09:52:28.766Z,2.00
2018-06-18T09:55:10.453Z,1.67
2018-06-18T09:57:51.925Z,2.83
2018-06-18T10:00:51.535Z,2.10
2018-06-18T10:03:27.922Z,1.87
2018-06-18T10:06:07.133Z,1.80
2018-06-18T10:08:43.522Z,1.77
2018-06-18T10:11:19.905Z,1.83
2018-06-18T10:13:56.288Z,1.53
2018-06-18T10:16:32.711Z,1.57
2018-06-18T10:19:09.179Z,1.60
2018-06-18T10:21:45.723Z,2.03
2018-06-18T10:24:22.246Z,1.60
2018-06-18T10:26:58.579Z,1.63
2018-06-18T10:29:35.253Z,1.50
2018-06-18T10:32:16.905Z,1.40
2018-06-18T10:34:58.533Z,1.80
2018-06-18T10:37:39.985Z,1.53
2018-06-18T10:40:21.688Z,1.43
2018-06-18T10:43:03.898Z,1.50
2018-06-18T10:45:40.599Z,1.93
2018-06-18T10:48:17.064Z,1.27
2018-06-18T10:50:54.193Z,1.77
2018-06-18T10:53:30.635Z,1.57
2018-06-18T10:56:07.943Z,1.73
2018-06-18T10:58:44.461Z,2.27
2018-06-18T11:01:29.620Z,1.70
2018-06-18T11:04:06.254Z,1.80
2018-06-18T11:06:42.699Z,1.80
2018-06-18T11:09:19.191Z,1.93
2018-06-18T11:11:55.453Z,1.40
2018-06-18T11:14:32.001Z,1.40
2018-06-18T11:17:13.780Z,1.50
2018-06-18T11:19:55.199Z,3.00
2018-06-18T11:22:36.878Z,1.90
2018-06-18T11:25:18.710Z,1.60
2018-06-18T11:27:55.656Z,1.50
2018-06-18T11:30:33.138Z,1.67
2018-06-18T11:33:09.495Z,1.40
2018-06-18T11:35:46.282Z,2.10
2018-06-18T11:38:22.731Z,1.20
2018-06-18T11:40:59.355Z,1.50
2018-06-18T11:43:35.887Z,1.60
2018-06-18T11:46:13.498Z,1.53
2018-06-18T11:48:49.824Z,1.70
2018-06-18T11:51:26.977Z,1.60
2018-06-18T11:54:03.397Z,1.60
2018-06-18T11:56:39.818Z,1.70
2018-06-18T11:59:21.619Z,1.40
2018-06-18T12:03:02.233Z,1.50
2018-06-18T12:05:43.869Z,1.27
2018-06-18T12:08:25.461Z,1.73
2018-06-18T12:11:02.112Z,2.00
2018-06-18T12:13:38.646Z,1.20
2018-06-18T12:16:15.843Z,1.10
2018-06-18T12:18:52.166Z,1.20
2018-06-18T12:21:32.368Z,1.30
2018-06-18T12:24:09.751Z,1.43
2018-06-18T12:26:46.573Z,1.40
2018-06-18T12:29:22.823Z,1.30
2018-06-18T12:31:59.279Z,1.53
2018-06-18T12:34:35.773Z,1.00
2018-06-18T12:37:12.112Z,1.60
2018-06-18T12:39:49.403Z,0.90
2018-06-18T12:42:26.755Z,1.00
2018-06-18T12:45:08.483Z,1.60
2018-06-18T12:47:50.191Z,1.20
2018-06-18T12:50:31.931Z,0.60
2018-06-18T12:53:13.724Z,1.20
2018-06-18T12:55:55.783Z,1.23
2018-06-18T12:58:32.322Z,1.40
2018-06-18T13:01:10.620Z,1.10
2018-06-18T13:03:46.897Z,1.40
2018-06-18T13:06:23.340Z,1.43
2018-06-18T13:08:59.677Z,1.30
2018-06-18T13:11:37.421Z,1.20
2018-06-18T13:14:13.896Z,1.30
2018-06-18T13:16:50.271Z,1.57
2018-06-18T13:19:27.355Z,1.10
2018-06-18T13:22:03.846Z,1.40
2018-06-18T13:24:40.398Z,2.80
2018-06-18T13:27:16.959Z,1.40
2018-06-18T13:29:53.440Z,1.47
2018-06-18T13:32:29.928Z,1.37
2018-06-18T13:35:06.676Z,1.20
2018-06-18T13:37:48.345Z,1.47
2018-06-18T13:40:30.131Z,1.40
2018-06-18T13:43:11.719Z,1.50
2018-06-18T13:45:52.487Z,1.70
2018-06-18T13:49:03.834Z,1.50
2018-06-18T13:51:40.536Z,1.43
2018-06-18T13:54:17.901Z,1.73
2018-06-18T13:56:54.963Z,1.67
2018-06-18T13:59:31.427Z,1.80
2018-06-18T14:02:08.634Z,1.70
2018-06-18T14:04:45.053Z,1.73
2018-06-18T14:07:21.609Z,1.73
2018-06-18T14:09:57.810Z,1.87
2018-06-18T14:12:34.343Z,1.50
2018-06-18T14:15:10.847Z,1.47
2018-06-18T14:17:47.426Z,1.33
2018-06-18T14:20:24.910Z,1.33
2018-06-18T14:23:01.327Z,1.57
2018-06-18T14:25:37.869Z,1.50
2018-06-18T14:28:14.267Z,1.70
2018-06-18T14:30:55.604Z,2.13
2018-06-18T14:33:37.444Z,1.70
2018-06-18T14:36:19.285Z,1.70
2018-06-18T14:39:01.026Z,1.17
2018-06-18T14:41:37.548Z,1.20
2018-06-18T14:44:14.046Z,1.60
2018-06-18T14:46:51.630Z,1.60
2018-06-18T14:49:28.471Z,1.67
2018-06-18T14:52:05.003Z,1.43
2018-06-18T14:54:41.596Z,1.57
2018-06-18T14:57:18.053Z,1.20
2018-06-18T15:00:12.182Z,1.50
2018-06-18T15:02:48.840Z,1.23
2018-06-18T15:05:37.113Z,1.60
2018-06-18T15:08:13.574Z,1.33
2018-06-18T15:10:54.196Z,1.90
2018-06-18T15:13:30.676Z,1.40
2018-06-18T15:16:13.256Z,1.23
2018-06-18T15:18:49.780Z,1.60
2018-06-18T15:21:26.418Z,1.60
2018-06-18T15:24:07.677Z,1.30
2018-06-18T15:26:44.077Z,1.37
2018-06-18T15:29:20.411Z,1.60
2018-06-18T15:31:58.089Z,2.57
2018-06-18T15:34:34.417Z,1.30
2018-06-18T15:37:10.702Z,1.43
2018-06-18T15:39:47.278Z,1.20
2018-06-18T15:42:23.791Z,1.40
2018-06-18T15:45:00.159Z,1.60
2018-06-18T15:47:36.628Z,1.30
2018-06-18T15:50:13.071Z,1.80
2018-06-18T15:52:50.194Z,1.40
2018-06-18T15:55:27.527Z,1.60
2018-06-18T15:58:04.335Z,1.40
2018-06-18T16:00:40.718Z,1.13
2018-06-18T16:03:17.090Z,1.57
2018-06-18T16:05:53.578Z,1.30
2018-06-18T16:08:30.191Z,1.20
2018-06-18T16:11:07.216Z,1.30
2018-06-18T16:13:43.539Z,1.60
2018-06-18T16:16:19.907Z,1.70
2018-06-18T16:18:57.002Z,2.13
2018-06-18T16:21:33.493Z,1.67
2018-06-18T16:24:09.934Z,1.83
2018-06-18T16:26:46.269Z,1.63
2018-06-18T16:29:22.704Z,1.93
2018-06-18T16:31:59.330Z,2.07
2018-06-18T16:34:35.742Z,1.33
2018-06-18T16:37:12.658Z,1.60
2018-06-18T16:39:49.153Z,2.00
2018-06-18T16:42:25.720Z,1.57
2018-06-18T16:45:02.072Z,2.13
2018-06-18T16:47:38.416Z,1.50
2018-06-18T16:50:15.050Z,1.33
2018-06-18T16:52:51.478Z,1.70
2018-06-18T16:55:27.898Z,1.73
2018-06-18T16:58:04.481Z,1.70
2018-06-18T17:00:41.036Z,1.90
2018-06-18T17:03:17.516Z,1.60
2018-06-18T17:05:53.816Z,1.60
2018-06-18T17:08:30.264Z,2.07
2018-06-18T17:11:06.807Z,2.23
2018-06-18T17:13:43.345Z,1.87
2018-06-18T17:16:19.919Z,2.53
2018-06-18T17:18:56.271Z,2.13
2018-06-18T17:21:32.734Z,2.13
2018-06-18T17:24:10.080Z,1.40
2018-06-18T17:26:46.634Z,1.83
2018-06-18T17:29:23.227Z,1.50
2018-06-18T17:32:00.663Z,2.60
2018-06-18T17:34:37.208Z,1.77
2018-06-18T17:37:13.532Z,1.50
2018-06-18T17:39:49.984Z,1.80
2018-06-18T17:42:27.913Z,1.83
2018-06-18T17:45:04.452Z,1.90
2018-06-18T17:47:40.991Z,1.57
2018-06-18T17:50:17.650Z,1.80
2018-06-18T17:52:53.987Z,1.77
2018-06-18T17:55:30.473Z,3.20
2018-06-18T17:58:07.103Z,2.60
2018-06-18T18:00:43.674Z,2.00
2018-06-18T18:03:20.141Z,1.60
2018-06-18T18:05:56.651Z,1.50
2018-06-18T18:08:33.039Z,1.67
2018-06-18T18:11:09.612Z,1.60
2018-06-18T18:13:46.013Z,1.70
2018-06-18T18:16:22.620Z,1.73
2018-06-18T18:18:59.259Z,1.40
2018-06-18T18:21:36.076Z,1.73
2018-06-18T18:24:12.757Z,1.90
2018-06-18T18:26:49.726Z,2.40
2018-06-18T18:29:26.423Z,39.00
2018-06-18T18:32:03.032Z,62.80
2018-06-18T18:34:39.552Z,40.27
2018-06-18T18:37:16.016Z,66.00
2018-06-18T18:39:52.563Z,13.77
2018-06-18T18:42:29.761Z,3.23
2018-06-18T18:45:06.702Z,3.03
2018-06-18T18:47:47.307Z,3.70
2018-06-18T18:50:24.700Z,1.87
2018-06-18T18:53:01.440Z,2.03
2018-06-18T18:55:58.789Z,1.50
2018-06-18T18:59:44.018Z,2.20
2018-06-18T19:02:20.238Z,1.80
2018-06-18T19:04:59.408Z,1.97
2018-06-18T19:07:44.438Z,1.50
2018-06-18T19:10:27.593Z,1.70
2018-06-18T19:13:07.785Z,5.93
2018-06-18T19:15:44.297Z,2.40
2018-06-18T19:18:20.864Z,2.83
2018-06-18T19:21:01.666Z,1.63
2018-06-18T19:23:38.929Z,1.80
2018-06-18T19:26:15.548Z,1.90
2018-06-18T19:28:52.034Z,1.90
2018-06-18T19:31:29.748Z,1.57
2018-06-18T19:34:18.325Z,2.17
2018-06-18T19:36:56.546Z,1.87
2018-06-18T19:39:37.115Z,1.90
2018-06-18T19:42:14.606Z,2.13
2018-06-18T19:44:50.907Z,2.63
2018-06-18T19:47:36.401Z,2.40
2018-06-18T19:50:13.116Z,2.23
2018-06-18T19:52:49.982Z,1.90
2018-06-18T19:55:29.453Z,1.67
2018-06-18T19:58:05.975Z,1.87
2018-06-18T20:00:47.954Z,1.77
2018-06-18T20:03:24.385Z,2.50
2018-06-18T20:06:00.875Z,1.63
2018-06-18T20:08:38.195Z,4.70
2018-06-18T20:11:14.719Z,2.23
2018-06-18T20:13:51.155Z,2.37
2018-06-18T20:16:27.718Z,5.20
2018-06-18T20:19:04.373Z,3.80
2018-06-18T20:21:41.850Z,2.13
2018-06-18T20:24:18.270Z,2.30
2018-06-18T20:26:54.607Z,2.87
2018-06-18T20:29:30.971Z,1.87
2018-06-18T20:32:07.527Z,1.90
2018-06-18T20:34:45.171Z,2.13
2018-06-18T20:37:21.661Z,1.97
2018-06-18T20:39:58.460Z,1.90
2018-06-18T20:42:35.055Z,2.30
2018-06-18T20:45:11.638Z,2.73
2018-06-18T20:47:48.209Z,2.40
2018-06-18T20:50:24.607Z,2.50
2018-06-18T20:53:03.263Z,2.53
2018-06-18T20:55:40.224Z,3.53
2018-06-18T20:58:17.440Z,1.80
2018-06-18T21:00:53.798Z,1.90
2018-06-18T21:03:30.318Z,2.03
2018-06-18T21:06:06.768Z,2.17
2018-06-18T21:08:43.284Z,1.83
2018-06-18T21:11:19.652Z,2.50
2018-06-18T21:13:56.030Z,1.90
2018-06-18T21:16:32.491Z,1.83
2018-06-18T21:19:09.009Z,1.70
2018-06-18T21:21:45.465Z,2.13
2018-06-18T21:24:22.043Z,2.20
2018-06-18T21:26:58.448Z,2.60
2018-06-18T21:29:34.956Z,2.57
2018-06-18T21:32:11.394Z,2.30
2018-06-18T21:34:48.027Z,2.30
2018-06-18T21:37:24.666Z,2.83
2018-06-18T21:40:02.141Z,2.47
2018-06-18T21:42:38.693Z,2.50
2018-06-18T21:45:21.589Z,2.47
2018-06-18T21:47:59.203Z,2.50
2018-06-18T21:50:35.574Z,1.90
2018-06-18T21:53:13.106Z,2.03
2018-06-18T21:55:49.402Z,2.30
2018-06-18T21:58:26.986Z,2.20
2018-06-18T22:01:03.478Z,2.60
2018-06-18T22:03:40.650Z,2.37
2018-06-18T22:06:17.205Z,2.10
2018-06-18T22:08:54.256Z,2.13
2018-06-18T22:11:30.720Z,2.43
2018-06-18T22:14:07.189Z,2.57
2018-06-18T22:16:43.606Z,2.20
2018-06-18T22:19:20.195Z,2.80
2018-06-18T22:21:56.723Z,2.50
2018-06-18T22:24:33.209Z,2.50
2018-06-18T22:27:09.771Z,2.80
2018-06-18T22:29:46.363Z,2.23
2018-06-18T22:32:22.790Z,2.17
2018-06-18T22:34:59.180Z,2.30
2018-06-18T22:37:35.612Z,2.60
2018-06-18T22:40:12.134Z,2.80
2018-06-18T22:42:48.431Z,2.53
2018-06-18T22:45:24.708Z,2.40
2018-06-18T22:48:01.183Z,2.77
2018-06-18T22:50:37.663Z,2.30
2018-06-18T22:53:13.997Z,2.50
2018-06-18T22:55:50.494Z,2.10
2018-06-18T22:58:27.880Z,3.00
2018-06-18T23:01:04.611Z,2.80
2018-06-18T23:03:41.237Z,3.50
2018-06-18T23:06:17.664Z,2.90
2018-06-18T23:08:54.064Z,2.50
2018-06-18T23:11:30.427Z,3.00
2018-06-18T23:14:11.096Z,2.73
2018-06-18T23:16:47.492Z,2.60
2018-06-18T23:19:24.078Z,2.30
2018-06-18T23:22:00.531Z,2.30
2018-06-18T23:24:37.049Z,2.50
2018-06-18T23:27:13.355Z,3.00
2018-06-18T23:29:49.862Z,3.07
2018-06-18T23:32:26.250Z,2.23
2018-06-18T23:35:02.674Z,2.67
2018-06-18T23:37:39.178Z,2.80
2018-06-18T23:40:15.740Z,3.13
2018-06-18T23:42:52.216Z,2.87
2018-06-18T23:45:28.715Z,3.03
2018-06-18T23:48:05.357Z,3.30
2018-06-18T23:50:42.470Z,2.63
2018-06-18T23:53:19.128Z,2.77
2018-06-18T23:55:55.740Z,2.53
2018-06-18T23:58:32.058Z,2.47
